sensor_id;sensor_type;location;lat;lon;timestamp;P1;durP1;ratioP1;P2;durP2;ratioP2
56005;SDS011;41888;44.696;10.522;2023-02-13T00:00:31;60.20;;;28.60;;
56005;SDS011;41888;44.696;10.522;2023-02-13T00:02:58;59.95;;;26.80;;
56005;SDS011;41888;44.696;10.522;2023-02-13T00:05:24;59.83;;;29.23;;
56005;SDS011;41888;44.696;10.522;2023-02-13T00:07:50;66.00;;;30.23;;
56005;SDS011;41888;44.696;10.522;2023-02-13T00:10:17;52.97;;;28.13;;
56005;SDS011;41888;44.696;10.522;2023-02-13T00:12:43;59.75;;;28.70;;
56005;SDS011;41888;44.696;10.522;2023-02-13T00:15:09;58.95;;;27.75;;
56005;SDS011;41888;44.696;10.522;2023-02-13T00:17:35;63.15;;;29.23;;
56005;SDS011;41888;44.696;10.522;2023-02-13T00:20:02;61.67;;;30.73;;
56005;SDS011;41888;44.696;10.522;2023-02-13T00:22:29;59.80;;;29.60;;
56005;SDS011;41888;44.696;10.522;2023-02-13T00:24:58;71.15;;;30.30;;
56005;SDS011;41888;44.696;10.522;2023-02-13T00:27:25;66.32;;;29.02;;
56005;SDS011;41888;44.696;10.522;2023-02-13T00:29:51;59.65;;;27.35;;
56005;SDS011;41888;44.696;10.522;2023-02-13T00:32:17;59.58;;;26.42;;
56005;SDS011;41888;44.696;10.522;2023-02-13T00:34:43;69.60;;;27.83;;
56005;SDS011;41888;44.696;10.522;2023-02-13T00:37:09;63.83;;;30.13;;
56005;SDS011;41888;44.696;10.522;2023-02-13T00:39:35;68.35;;;30.60;;
56005;SDS011;41888;44.696;10.522;2023-02-13T00:42:02;66.93;;;31.10;;
56005;SDS011;41888;44.696;10.522;2023-02-13T00:44:28;73.28;;;32.17;;
56005;SDS011;41888;44.696;10.522;2023-02-13T00:46:54;74.32;;;32.55;;
56005;SDS011;41888;44.696;10.522;2023-02-13T00:49:20;72.60;;;34.13;;
56005;SDS011;41888;44.696;10.522;2023-02-13T00:51:47;77.97;;;34.13;;
56005;SDS011;41888;44.696;10.522;2023-02-13T00:54:13;70.88;;;31.33;;
56005;SDS011;41888;44.696;10.522;2023-02-13T00:56:39;77.22;;;35.53;;
56005;SDS011;41888;44.696;10.522;2023-02-13T00:59:05;90.38;;;37.70;;
56005;SDS011;41888;44.696;10.522;2023-02-13T01:01:32;84.22;;;37.40;;
56005;SDS011;41888;44.696;10.522;2023-02-13T01:03:58;84.85;;;38.17;;
56005;SDS011;41888;44.696;10.522;2023-02-13T01:06:24;82.68;;;38.60;;
56005;SDS011;41888;44.696;10.522;2023-02-13T01:08:50;92.28;;;38.42;;
56005;SDS011;41888;44.696;10.522;2023-02-13T01:11:16;90.85;;;35.67;;
56005;SDS011;41888;44.696;10.522;2023-02-13T01:13:43;79.78;;;36.17;;
56005;SDS011;41888;44.696;10.522;2023-02-13T01:16:10;77.00;;;36.88;;
56005;SDS011;41888;44.696;10.522;2023-02-13T01:18:36;81.80;;;37.03;;
56005;SDS011;41888;44.696;10.522;2023-02-13T01:21:07;80.75;;;34.95;;
56005;SDS011;41888;44.696;10.522;2023-02-13T01:23:44;86.63;;;36.05;;
56005;SDS011;41888;44.696;10.522;2023-02-13T01:26:12;78.82;;;35.55;;
56005;SDS011;41888;44.696;10.522;2023-02-13T01:28:44;79.95;;;38.28;;
56005;SDS011;41888;44.696;10.522;2023-02-13T01:31:11;83.20;;;39.05;;
56005;SDS011;41888;44.696;10.522;2023-02-13T01:33:37;89.30;;;41.15;;
56005;SDS011;41888;44.696;10.522;2023-02-13T01:36:07;87.43;;;39.10;;
56005;SDS011;41888;44.696;10.522;2023-02-13T01:38:35;88.10;;;40.28;;
56005;SDS011;41888;44.696;10.522;2023-02-13T01:41:01;101.35;;;41.25;;
56005;SDS011;41888;44.696;10.522;2023-02-13T01:46:14;93.22;;;41.53;;
56005;SDS011;41888;44.696;10.522;2023-02-13T01:48:43;92.75;;;41.40;;
56005;SDS011;41888;44.696;10.522;2023-02-13T01:51:12;87.00;;;40.38;;
56005;SDS011;41888;44.696;10.522;2023-02-13T01:54:04;84.00;;;37.55;;
56005;SDS011;41888;44.696;10.522;2023-02-13T01:59:02;86.20;;;37.20;;
56005;SDS011;41888;44.696;10.522;2023-02-13T02:01:31;94.45;;;40.80;;
56005;SDS011;41888;44.696;10.522;2023-02-13T02:03:59;92.97;;;39.33;;
56005;SDS011;41888;44.696;10.522;2023-02-13T02:06:37;80.43;;;39.03;;
56005;SDS011;41888;44.696;10.522;2023-02-13T02:09:15;83.70;;;36.60;;
56005;SDS011;41888;44.696;10.522;2023-02-13T02:14:20;77.15;;;34.90;;
56005;SDS011;41888;44.696;10.522;2023-02-13T02:16:46;87.32;;;38.60;;
56005;SDS011;41888;44.696;10.522;2023-02-13T02:19:14;82.50;;;35.95;;
56005;SDS011;41888;44.696;10.522;2023-02-13T02:22:00;81.85;;;35.38;;
56005;SDS011;41888;44.696;10.522;2023-02-13T02:41:21;83.93;;;36.67;;
56005;SDS011;41888;44.696;10.522;2023-02-13T02:47:01;80.50;;;33.63;;
56005;SDS011;41888;44.696;10.522;2023-02-13T02:53:03;79.90;;;33.50;;
56005;SDS011;41888;44.696;10.522;2023-02-13T02:55:51;90.20;;;36.90;;
56005;SDS011;41888;44.696;10.522;2023-02-13T02:58:53;78.93;;;31.67;;
56005;SDS011;41888;44.696;10.522;2023-02-13T03:01:45;69.38;;;31.05;;
56005;SDS011;41888;44.696;10.522;2023-02-13T03:04:45;64.32;;;26.15;;
56005;SDS011;41888;44.696;10.522;2023-02-13T03:07:34;71.82;;;30.45;;
56005;SDS011;41888;44.696;10.522;2023-02-13T03:10:25;68.68;;;31.60;;
56005;SDS011;41888;44.696;10.522;2023-02-13T03:13:16;65.05;;;29.23;;
56005;SDS011;41888;44.696;10.522;2023-02-13T03:16:03;61.10;;;24.52;;
56005;SDS011;41888;44.696;10.522;2023-02-13T03:18:50;59.75;;;27.63;;
56005;SDS011;41888;44.696;10.522;2023-02-13T03:24:39;55.88;;;25.85;;
56005;SDS011;41888;44.696;10.522;2023-02-13T03:30:39;50.67;;;22.90;;
56005;SDS011;41888;44.696;10.522;2023-02-13T03:35:55;45.72;;;20.15;;
56005;SDS011;41888;44.696;10.522;2023-02-13T03:41:44;50.30;;;20.92;;
56005;SDS011;41888;44.696;10.522;2023-02-13T03:46:48;50.22;;;21.27;;
56005;SDS011;41888;44.696;10.522;2023-02-13T03:50:00;48.05;;;22.75;;
56005;SDS011;41888;44.696;10.522;2023-02-13T03:55:46;41.28;;;20.48;;
56005;SDS011;41888;44.696;10.522;2023-02-13T03:58:37;39.20;;;18.08;;
56005;SDS011;41888;44.696;10.522;2023-02-13T04:01:27;47.85;;;19.88;;
56005;SDS011;41888;44.696;10.522;2023-02-13T04:06:55;42.33;;;19.65;;
56005;SDS011;41888;44.696;10.522;2023-02-13T04:09:26;40.53;;;19.42;;
56005;SDS011;41888;44.696;10.522;2023-02-13T04:12:13;40.63;;;20.17;;
56005;SDS011;41888;44.696;10.522;2023-02-13T04:17:28;40.30;;;19.98;;
56005;SDS011;41888;44.696;10.522;2023-02-13T04:19:58;42.08;;;20.05;;
56005;SDS011;41888;44.696;10.522;2023-02-13T04:22:25;40.17;;;18.20;;
56005;SDS011;41888;44.696;10.522;2023-02-13T04:24:51;41.53;;;19.42;;
56005;SDS011;41888;44.696;10.522;2023-02-13T04:27:17;43.47;;;18.55;;
56005;SDS011;41888;44.696;10.522;2023-02-13T04:29:44;38.03;;;16.38;;
56005;SDS011;41888;44.696;10.522;2023-02-13T04:32:10;42.70;;;17.67;;
56005;SDS011;41888;44.696;10.522;2023-02-13T04:34:38;46.67;;;20.52;;
56005;SDS011;41888;44.696;10.522;2023-02-13T04:37:04;47.78;;;22.50;;
56005;SDS011;41888;44.696;10.522;2023-02-13T04:39:30;46.67;;;20.85;;
56005;SDS011;41888;44.696;10.522;2023-02-13T04:41:56;48.17;;;23.15;;
56005;SDS011;41888;44.696;10.522;2023-02-13T04:44:22;44.42;;;19.85;;
56005;SDS011;41888;44.696;10.522;2023-02-13T04:46:49;41.25;;;18.98;;
56005;SDS011;41888;44.696;10.522;2023-02-13T04:49:15;35.22;;;17.60;;
56005;SDS011;41888;44.696;10.522;2023-02-13T04:51:41;42.25;;;19.20;;
56005;SDS011;41888;44.696;10.522;2023-02-13T04:54:07;44.00;;;19.60;;
56005;SDS011;41888;44.696;10.522;2023-02-13T04:56:34;45.83;;;21.30;;
56005;SDS011;41888;44.696;10.522;2023-02-13T04:59:00;40.90;;;20.45;;
56005;SDS011;41888;44.696;10.522;2023-02-13T05:01:27;41.00;;;19.67;;
56005;SDS011;41888;44.696;10.522;2023-02-13T05:03:53;46.42;;;18.85;;
56005;SDS011;41888;44.696;10.522;2023-02-13T05:06:19;44.55;;;20.70;;
56005;SDS011;41888;44.696;10.522;2023-02-13T05:08:46;37.47;;;18.42;;
56005;SDS011;41888;44.696;10.522;2023-02-13T05:11:12;41.92;;;20.63;;
56005;SDS011;41888;44.696;10.522;2023-02-13T05:13:38;47.65;;;20.58;;
56005;SDS011;41888;44.696;10.522;2023-02-13T05:16:04;48.13;;;20.95;;
56005;SDS011;41888;44.696;10.522;2023-02-13T05:18:31;44.92;;;20.25;;
56005;SDS011;41888;44.696;10.522;2023-02-13T05:20:57;48.22;;;20.35;;
56005;SDS011;41888;44.696;10.522;2023-02-13T05:23:41;40.13;;;18.13;;
56005;SDS011;41888;44.696;10.522;2023-02-13T05:26:08;44.75;;;18.50;;
56005;SDS011;41888;44.696;10.522;2023-02-13T05:28:34;43.58;;;19.27;;
56005;SDS011;41888;44.696;10.522;2023-02-13T05:33:44;38.15;;;17.80;;
56005;SDS011;41888;44.696;10.522;2023-02-13T05:36:11;44.30;;;17.88;;
56005;SDS011;41888;44.696;10.522;2023-02-13T05:38:37;43.63;;;18.15;;
56005;SDS011;41888;44.696;10.522;2023-02-13T05:41:05;37.10;;;16.50;;
56005;SDS011;41888;44.696;10.522;2023-02-13T05:43:31;44.05;;;19.80;;
56005;SDS011;41888;44.696;10.522;2023-02-13T05:46:01;40.03;;;19.50;;
56005;SDS011;41888;44.696;10.522;2023-02-13T05:48:29;36.88;;;17.88;;
56005;SDS011;41888;44.696;10.522;2023-02-13T05:50:55;37.83;;;18.80;;
56005;SDS011;41888;44.696;10.522;2023-02-13T05:53:21;39.03;;;17.50;;
56005;SDS011;41888;44.696;10.522;2023-02-13T05:55:47;36.20;;;17.48;;
56005;SDS011;41888;44.696;10.522;2023-02-13T05:58:16;40.65;;;16.20;;
56005;SDS011;41888;44.696;10.522;2023-02-13T06:00:43;41.03;;;16.42;;
56005;SDS011;41888;44.696;10.522;2023-02-13T06:03:10;37.95;;;17.15;;
56005;SDS011;41888;44.696;10.522;2023-02-13T06:05:36;33.67;;;14.85;;
56005;SDS011;41888;44.696;10.522;2023-02-13T06:08:02;36.45;;;15.85;;
56005;SDS011;41888;44.696;10.522;2023-02-13T06:10:28;34.08;;;14.63;;
56005;SDS011;41888;44.696;10.522;2023-02-13T06:12:55;32.03;;;14.75;;
56005;SDS011;41888;44.696;10.522;2023-02-13T06:15:21;32.78;;;14.48;;
56005;SDS011;41888;44.696;10.522;2023-02-13T06:17:48;27.45;;;13.48;;
56005;SDS011;41888;44.696;10.522;2023-02-13T06:20:14;32.88;;;13.45;;
56005;SDS011;41888;44.696;10.522;2023-02-13T06:22:40;36.35;;;15.65;;
56005;SDS011;41888;44.696;10.522;2023-02-13T06:25:06;31.30;;;14.90;;
56005;SDS011;41888;44.696;10.522;2023-02-13T06:27:33;29.77;;;14.63;;
56005;SDS011;41888;44.696;10.522;2023-02-13T06:29:59;27.85;;;14.93;;
56005;SDS011;41888;44.696;10.522;2023-02-13T06:32:25;30.75;;;12.45;;
56005;SDS011;41888;44.696;10.522;2023-02-13T06:34:51;35.33;;;15.60;;
56005;SDS011;41888;44.696;10.522;2023-02-13T06:37:17;27.42;;;14.77;;
56005;SDS011;41888;44.696;10.522;2023-02-13T06:39:43;30.52;;;13.45;;
56005;SDS011;41888;44.696;10.522;2023-02-13T06:42:09;31.55;;;14.85;;
56005;SDS011;41888;44.696;10.522;2023-02-13T06:44:36;33.08;;;13.18;;
56005;SDS011;41888;44.696;10.522;2023-02-13T06:47:02;34.42;;;14.93;;
56005;SDS011;41888;44.696;10.522;2023-02-13T06:49:28;27.77;;;14.55;;
56005;SDS011;41888;44.696;10.522;2023-02-13T06:51:54;28.33;;;14.27;;
56005;SDS011;41888;44.696;10.522;2023-02-13T06:54:20;32.83;;;13.60;;
56005;SDS011;41888;44.696;10.522;2023-02-13T06:56:46;32.22;;;15.77;;
56005;SDS011;41888;44.696;10.522;2023-02-13T06:59:13;35.22;;;15.85;;
56005;SDS011;41888;44.696;10.522;2023-02-13T07:01:39;30.35;;;14.98;;
56005;SDS011;41888;44.696;10.522;2023-02-13T07:04:05;27.85;;;13.60;;
56005;SDS011;41888;44.696;10.522;2023-02-13T07:06:31;30.90;;;14.50;;
56005;SDS011;41888;44.696;10.522;2023-02-13T07:08:57;32.33;;;15.00;;
56005;SDS011;41888;44.696;10.522;2023-02-13T07:11:24;37.30;;;14.73;;
56005;SDS011;41888;44.696;10.522;2023-02-13T07:13:51;33.28;;;15.73;;
56005;SDS011;41888;44.696;10.522;2023-02-13T07:16:17;32.97;;;15.23;;
56005;SDS011;41888;44.696;10.522;2023-02-13T07:18:43;28.80;;;13.77;;
56005;SDS011;41888;44.696;10.522;2023-02-13T07:21:09;30.75;;;14.88;;
56005;SDS011;41888;44.696;10.522;2023-02-13T07:23:36;32.22;;;15.20;;
56005;SDS011;41888;44.696;10.522;2023-02-13T07:26:03;33.72;;;15.80;;
56005;SDS011;41888;44.696;10.522;2023-02-13T07:28:29;30.05;;;15.07;;
56005;SDS011;41888;44.696;10.522;2023-02-13T07:30:55;38.10;;;17.60;;
56005;SDS011;41888;44.696;10.522;2023-02-13T07:33:22;34.03;;;16.42;;
56005;SDS011;41888;44.696;10.522;2023-02-13T07:35:49;34.95;;;16.17;;
56005;SDS011;41888;44.696;10.522;2023-02-13T07:38:16;37.65;;;17.40;;
56005;SDS011;41888;44.696;10.522;2023-02-13T07:40:43;38.15;;;19.38;;
56005;SDS011;41888;44.696;10.522;2023-02-13T07:43:09;39.40;;;18.95;;
56005;SDS011;41888;44.696;10.522;2023-02-13T07:45:37;45.67;;;19.10;;
56005;SDS011;41888;44.696;10.522;2023-02-13T07:48:03;42.22;;;20.67;;
56005;SDS011;41888;44.696;10.522;2023-02-13T07:50:29;38.10;;;18.13;;
56005;SDS011;41888;44.696;10.522;2023-02-13T07:52:56;54.25;;;23.25;;
56005;SDS011;41888;44.696;10.522;2023-02-13T07:55:24;51.25;;;25.05;;
56005;SDS011;41888;44.696;10.522;2023-02-13T07:57:51;49.05;;;24.13;;
56005;SDS011;41888;44.696;10.522;2023-02-13T08:00:18;51.90;;;25.00;;
56005;SDS011;41888;44.696;10.522;2023-02-13T08:02:45;56.72;;;25.83;;
56005;SDS011;41888;44.696;10.522;2023-02-13T08:05:11;52.50;;;24.63;;
56005;SDS011;41888;44.696;10.522;2023-02-13T08:07:38;53.95;;;24.27;;
56005;SDS011;41888;44.696;10.522;2023-02-13T08:10:05;53.25;;;25.15;;
56005;SDS011;41888;44.696;10.522;2023-02-13T08:12:51;58.08;;;27.58;;
56005;SDS011;41888;44.696;10.522;2023-02-13T08:15:18;54.30;;;26.17;;
56005;SDS011;41888;44.696;10.522;2023-02-13T08:17:44;52.17;;;26.45;;
56005;SDS011;41888;44.696;10.522;2023-02-13T08:20:10;62.85;;;29.75;;
56005;SDS011;41888;44.696;10.522;2023-02-13T08:22:37;62.53;;;30.25;;
56005;SDS011;41888;44.696;10.522;2023-02-13T08:25:04;56.85;;;30.13;;
56005;SDS011;41888;44.696;10.522;2023-02-13T08:27:31;58.70;;;30.05;;
56005;SDS011;41888;44.696;10.522;2023-02-13T08:29:58;64.30;;;31.55;;
56005;SDS011;41888;44.696;10.522;2023-02-13T08:32:25;61.53;;;31.73;;
56005;SDS011;41888;44.696;10.522;2023-02-13T08:34:51;64.35;;;33.35;;
56005;SDS011;41888;44.696;10.522;2023-02-13T08:37:18;67.90;;;33.80;;
56005;SDS011;41888;44.696;10.522;2023-02-13T08:39:44;72.30;;;36.03;;
56005;SDS011;41888;44.696;10.522;2023-02-13T08:42:10;71.85;;;37.03;;
56005;SDS011;41888;44.696;10.522;2023-02-13T08:44:36;69.45;;;35.15;;
56005;SDS011;41888;44.696;10.522;2023-02-13T08:47:05;76.07;;;37.97;;
56005;SDS011;41888;44.696;10.522;2023-02-13T08:49:31;69.78;;;36.50;;
56005;SDS011;41888;44.696;10.522;2023-02-13T08:52:01;76.30;;;38.55;;
56005;SDS011;41888;44.696;10.522;2023-02-13T08:54:28;71.03;;;35.80;;
56005;SDS011;41888;44.696;10.522;2023-02-13T08:56:54;67.00;;;36.33;;
56005;SDS011;41888;44.696;10.522;2023-02-13T08:59:21;68.78;;;36.55;;
56005;SDS011;41888;44.696;10.522;2023-02-13T09:01:47;70.65;;;38.67;;
56005;SDS011;41888;44.696;10.522;2023-02-13T09:04:13;69.65;;;35.17;;
56005;SDS011;41888;44.696;10.522;2023-02-13T09:06:40;68.82;;;38.50;;
56005;SDS011;41888;44.696;10.522;2023-02-13T09:09:06;65.20;;;36.38;;
56005;SDS011;41888;44.696;10.522;2023-02-13T09:11:33;68.43;;;37.78;;
56005;SDS011;41888;44.696;10.522;2023-02-13T09:13:59;72.15;;;35.72;;
56005;SDS011;41888;44.696;10.522;2023-02-13T09:16:25;69.80;;;39.58;;
56005;SDS011;41888;44.696;10.522;2023-02-13T09:18:51;68.47;;;39.22;;
56005;SDS011;41888;44.696;10.522;2023-02-13T09:21:18;68.65;;;40.40;;
56005;SDS011;41888;44.696;10.522;2023-02-13T09:23:47;66.13;;;38.90;;
56005;SDS011;41888;44.696;10.522;2023-02-13T09:26:15;66.38;;;40.63;;
56005;SDS011;41888;44.696;10.522;2023-02-13T09:28:42;71.57;;;39.40;;
56005;SDS011;41888;44.696;10.522;2023-02-13T09:31:19;70.10;;;39.65;;
56005;SDS011;41888;44.696;10.522;2023-02-13T09:33:46;68.20;;;38.70;;
56005;SDS011;41888;44.696;10.522;2023-02-13T09:36:14;69.53;;;39.92;;
56005;SDS011;41888;44.696;10.522;2023-02-13T09:38:44;69.18;;;39.83;;
56005;SDS011;41888;44.696;10.522;2023-02-13T09:43:53;68.90;;;39.97;;
56005;SDS011;41888;44.696;10.522;2023-02-13T09:46:21;67.55;;;39.83;;
56005;SDS011;41888;44.696;10.522;2023-02-13T09:48:53;65.68;;;39.58;;
56005;SDS011;41888;44.696;10.522;2023-02-13T09:51:23;66.63;;;40.08;;
56005;SDS011;41888;44.696;10.522;2023-02-13T09:53:56;72.25;;;42.50;;
56005;SDS011;41888;44.696;10.522;2023-02-13T09:56:40;67.93;;;39.38;;
56005;SDS011;41888;44.696;10.522;2023-02-13T10:15:50;64.75;;;40.22;;
56005;SDS011;41888;44.696;10.522;2023-02-13T10:18:40;62.72;;;37.70;;
56005;SDS011;41888;44.696;10.522;2023-02-13T10:21:18;61.78;;;37.05;;
56005;SDS011;41888;44.696;10.522;2023-02-13T10:26:34;69.43;;;38.33;;
56005;SDS011;41888;44.696;10.522;2023-02-13T10:31:59;63.22;;;38.65;;
56005;SDS011;41888;44.696;10.522;2023-02-13T10:34:30;66.32;;;39.50;;
56005;SDS011;41888;44.696;10.522;2023-02-13T10:37:01;69.75;;;40.53;;
56005;SDS011;41888;44.696;10.522;2023-02-13T10:39:33;67.43;;;40.50;;
56005;SDS011;41888;44.696;10.522;2023-02-13T10:42:06;67.25;;;40.17;;
56005;SDS011;41888;44.696;10.522;2023-02-13T11:04:03;62.33;;;38.58;;
56005;SDS011;41888;44.696;10.522;2023-02-13T11:06:32;67.82;;;40.38;;
56005;SDS011;41888;44.696;10.522;2023-02-13T11:09:02;71.68;;;39.85;;
56005;SDS011;41888;44.696;10.522;2023-02-13T11:14:13;62.50;;;40.13;;
56005;SDS011;41888;44.696;10.522;2023-02-13T11:16:52;61.33;;;37.65;;
56005;SDS011;41888;44.696;10.522;2023-02-13T11:22:26;64.45;;;37.63;;
56005;SDS011;41888;44.696;10.522;2023-02-13T11:25:22;64.00;;;39.10;;
56005;SDS011;41888;44.696;10.522;2023-02-13T11:28:03;64.05;;;37.97;;
56005;SDS011;41888;44.696;10.522;2023-02-13T11:30:34;59.70;;;36.60;;
56005;SDS011;41888;44.696;10.522;2023-02-13T11:35:47;65.57;;;37.25;;
56005;SDS011;41888;44.696;10.522;2023-02-13T11:40:46;60.80;;;37.53;;
56005;SDS011;41888;44.696;10.522;2023-02-13T11:43:16;61.38;;;37.13;;
56005;SDS011;41888;44.696;10.522;2023-02-13T11:46:05;63.70;;;37.67;;
56005;SDS011;41888;44.696;10.522;2023-02-13T11:48:38;63.88;;;37.63;;
56005;SDS011;41888;44.696;10.522;2023-02-13T11:51:06;65.68;;;37.40;;
56005;SDS011;41888;44.696;10.522;2023-02-13T11:53:37;64.93;;;39.45;;
56005;SDS011;41888;44.696;10.522;2023-02-13T11:58:30;55.97;;;33.40;;
56005;SDS011;41888;44.696;10.522;2023-02-13T12:01:08;69.93;;;38.25;;
56005;SDS011;41888;44.696;10.522;2023-02-13T12:03:43;74.65;;;41.47;;
56005;SDS011;41888;44.696;10.522;2023-02-13T12:06:21;63.72;;;36.67;;
56005;SDS011;41888;44.696;10.522;2023-02-13T12:08:47;59.80;;;35.75;;
56005;SDS011;41888;44.696;10.522;2023-02-13T12:11:20;60.15;;;37.33;;
56005;SDS011;41888;44.696;10.522;2023-02-13T12:13:58;60.90;;;36.13;;
56005;SDS011;41888;44.696;10.522;2023-02-13T12:16:38;62.33;;;33.85;;
56005;SDS011;41888;44.696;10.522;2023-02-13T12:19:24;52.72;;;31.15;;
56005;SDS011;41888;44.696;10.522;2023-02-13T12:36:38;49.33;;;28.73;;
56005;SDS011;41888;44.696;10.522;2023-02-13T12:39:33;55.63;;;30.30;;
56005;SDS011;41888;44.696;10.522;2023-02-13T12:47:18;56.35;;;31.30;;
56005;SDS011;41888;44.696;10.522;2023-02-13T12:50:23;47.60;;;28.05;;
56005;SDS011;41888;44.696;10.522;2023-02-13T12:56:01;54.47;;;29.25;;
56005;SDS011;41888;44.696;10.522;2023-02-13T13:01:25;46.22;;;26.55;;
56005;SDS011;41888;44.696;10.522;2023-02-13T13:09:51;53.13;;;28.80;;
56005;SDS011;41888;44.696;10.522;2023-02-13T13:20:57;50.28;;;28.95;;
56005;SDS011;41888;44.696;10.522;2023-02-13T13:23:38;55.05;;;29.38;;
56005;SDS011;41888;44.696;10.522;2023-02-13T13:29:36;50.45;;;30.25;;
56005;SDS011;41888;44.696;10.522;2023-02-13T13:32:07;54.55;;;29.92;;
56005;SDS011;41888;44.696;10.522;2023-02-13T13:34:40;48.42;;;26.88;;
56005;SDS011;41888;44.696;10.522;2023-02-13T13:50:48;48.47;;;27.48;;
56005;SDS011;41888;44.696;10.522;2023-02-13T13:53:16;45.15;;;25.90;;
56005;SDS011;41888;44.696;10.522;2023-02-13T14:04:03;44.67;;;24.95;;
56005;SDS011;41888;44.696;10.522;2023-02-13T14:11:53;39.25;;;21.88;;
56005;SDS011;41888;44.696;10.522;2023-02-13T14:16:56;35.38;;;20.80;;
56005;SDS011;41888;44.696;10.522;2023-02-13T14:19:36;38.25;;;19.17;;
56005;SDS011;41888;44.696;10.522;2023-02-13T14:25:05;39.38;;;21.50;;
56005;SDS011;41888;44.696;10.522;2023-02-13T14:27:50;38.85;;;20.35;;
56005;SDS011;41888;44.696;10.522;2023-02-13T14:30:25;37.72;;;22.30;;
56005;SDS011;41888;44.696;10.522;2023-02-13T14:33:05;36.03;;;21.30;;
56005;SDS011;41888;44.696;10.522;2023-02-13T14:35:45;36.83;;;20.42;;
56005;SDS011;41888;44.696;10.522;2023-02-13T14:38:29;34.47;;;19.88;;
56005;SDS011;41888;44.696;10.522;2023-02-13T14:40:56;35.45;;;20.80;;
56005;SDS011;41888;44.696;10.522;2023-02-13T14:43:35;37.15;;;20.85;;
56005;SDS011;41888;44.696;10.522;2023-02-13T14:46:19;37.75;;;21.80;;
56005;SDS011;41888;44.696;10.522;2023-02-13T14:51:50;34.42;;;19.73;;
56005;SDS011;41888;44.696;10.522;2023-02-13T14:54:44;39.97;;;23.00;;
56005;SDS011;41888;44.696;10.522;2023-02-13T14:57:16;35.97;;;20.50;;
56005;SDS011;41888;44.696;10.522;2023-02-13T14:59:47;34.30;;;20.02;;
56005;SDS011;41888;44.696;10.522;2023-02-13T15:05:00;35.93;;;19.70;;
56005;SDS011;41888;44.696;10.522;2023-02-13T15:07:47;36.60;;;20.85;;
56005;SDS011;41888;44.696;10.522;2023-02-13T15:10:51;35.90;;;19.77;;
56005;SDS011;41888;44.696;10.522;2023-02-13T15:13:15;33.85;;;19.33;;
56005;SDS011;41888;44.696;10.522;2023-02-13T15:15:57;36.50;;;20.20;;
56005;SDS011;41888;44.696;10.522;2023-02-13T15:18:28;36.78;;;19.73;;
56005;SDS011;41888;44.696;10.522;2023-02-13T15:21:08;36.63;;;19.55;;
56005;SDS011;41888;44.696;10.522;2023-02-13T15:26:07;33.15;;;17.23;;
56005;SDS011;41888;44.696;10.522;2023-02-13T15:28:56;35.80;;;18.45;;
56005;SDS011;41888;44.696;10.522;2023-02-13T15:31:37;32.90;;;16.92;;
56005;SDS011;41888;44.696;10.522;2023-02-13T15:34:16;33.17;;;17.75;;
56005;SDS011;41888;44.696;10.522;2023-02-13T15:36:48;33.58;;;17.77;;
56005;SDS011;41888;44.696;10.522;2023-02-13T15:39:16;37.60;;;19.08;;
56005;SDS011;41888;44.696;10.522;2023-02-13T15:41:47;38.60;;;19.67;;
56005;SDS011;41888;44.696;10.522;2023-02-13T15:44:17;32.95;;;18.20;;
56005;SDS011;41888;44.696;10.522;2023-02-13T15:46:46;34.22;;;18.10;;
56005;SDS011;41888;44.696;10.522;2023-02-13T15:49:18;37.38;;;18.35;;
56005;SDS011;41888;44.696;10.522;2023-02-13T15:51:47;34.85;;;19.45;;
56005;SDS011;41888;44.696;10.522;2023-02-13T15:54:20;36.22;;;19.02;;
56005;SDS011;41888;44.696;10.522;2023-02-13T15:56:47;31.98;;;18.23;;
56005;SDS011;41888;44.696;10.522;2023-02-13T15:59:15;32.58;;;17.70;;
56005;SDS011;41888;44.696;10.522;2023-02-13T16:01:43;41.85;;;19.48;;
56005;SDS011;41888;44.696;10.522;2023-02-13T16:04:14;38.28;;;19.05;;
56005;SDS011;41888;44.696;10.522;2023-02-13T16:06:43;36.30;;;19.85;;
56005;SDS011;41888;44.696;10.522;2023-02-13T16:09:24;37.65;;;18.45;;
56005;SDS011;41888;44.696;10.522;2023-02-13T16:11:52;37.90;;;18.73;;
56005;SDS011;41888;44.696;10.522;2023-02-13T16:14:24;40.13;;;19.75;;
56005;SDS011;41888;44.696;10.522;2023-02-13T16:17:01;36.65;;;18.13;;
56005;SDS011;41888;44.696;10.522;2023-02-13T16:22:54;36.22;;;19.55;;
56005;SDS011;41888;44.696;10.522;2023-02-13T16:25:38;33.17;;;18.00;;
56005;SDS011;41888;44.696;10.522;2023-02-13T16:30:41;40.05;;;19.67;;
56005;SDS011;41888;44.696;10.522;2023-02-13T16:35:53;38.00;;;19.75;;
56005;SDS011;41888;44.696;10.522;2023-02-13T16:41:04;37.85;;;20.73;;
56005;SDS011;41888;44.696;10.522;2023-02-13T16:46:30;40.17;;;22.13;;
56005;SDS011;41888;44.696;10.522;2023-02-13T16:54:05;39.15;;;20.30;;
56005;SDS011;41888;44.696;10.522;2023-02-13T16:56:49;41.38;;;21.42;;
56005;SDS011;41888;44.696;10.522;2023-02-13T17:04:51;41.72;;;21.80;;
56005;SDS011;41888;44.696;10.522;2023-02-13T17:07:30;49.60;;;22.48;;
56005;SDS011;41888;44.696;10.522;2023-02-13T17:12:38;44.58;;;21.77;;
56005;SDS011;41888;44.696;10.522;2023-02-13T17:15:06;40.55;;;19.33;;
56005;SDS011;41888;44.696;10.522;2023-02-13T17:17:36;37.80;;;19.42;;
56005;SDS011;41888;44.696;10.522;2023-02-13T17:20:02;36.42;;;20.67;;
56005;SDS011;41888;44.696;10.522;2023-02-13T17:25:02;43.20;;;19.95;;
56005;SDS011;41888;44.696;10.522;2023-02-13T17:27:36;41.00;;;21.67;;
56005;SDS011;41888;44.696;10.522;2023-02-13T17:30:02;38.97;;;19.42;;
56005;SDS011;41888;44.696;10.522;2023-02-13T17:32:29;40.33;;;21.05;;
56005;SDS011;41888;44.696;10.522;2023-02-13T17:34:55;40.13;;;20.25;;
56005;SDS011;41888;44.696;10.522;2023-02-13T17:37:22;45.08;;;18.92;;
56005;SDS011;41888;44.696;10.522;2023-02-13T17:39:50;37.95;;;17.77;;
56005;SDS011;41888;44.696;10.522;2023-02-13T17:42:19;44.50;;;20.75;;
56005;SDS011;41888;44.696;10.522;2023-02-13T17:44:47;39.90;;;19.75;;
56005;SDS011;41888;44.696;10.522;2023-02-13T17:47:14;41.60;;;19.42;;
56005;SDS011;41888;44.696;10.522;2023-02-13T17:49:40;37.00;;;20.30;;
56005;SDS011;41888;44.696;10.522;2023-02-13T17:52:06;43.05;;;20.30;;
56005;SDS011;41888;44.696;10.522;2023-02-13T17:54:37;42.65;;;20.55;;
56005;SDS011;41888;44.696;10.522;2023-02-13T17:57:03;39.88;;;20.02;;
56005;SDS011;41888;44.696;10.522;2023-02-13T17:59:30;45.60;;;19.38;;
56005;SDS011;41888;44.696;10.522;2023-02-13T18:01:56;44.85;;;19.13;;
56005;SDS011;41888;44.696;10.522;2023-02-13T18:04:22;41.42;;;19.75;;
56005;SDS011;41888;44.696;10.522;2023-02-13T18:06:51;40.03;;;19.27;;
56005;SDS011;41888;44.696;10.522;2023-02-13T18:09:18;40.47;;;20.00;;
56005;SDS011;41888;44.696;10.522;2023-02-13T18:11:46;45.05;;;20.75;;
56005;SDS011;41888;44.696;10.522;2023-02-13T18:14:13;47.58;;;21.17;;
56005;SDS011;41888;44.696;10.522;2023-02-13T18:16:40;57.25;;;25.27;;
56005;SDS011;41888;44.696;10.522;2023-02-13T18:19:06;55.67;;;24.95;;